Terminal Aerodrome Forecast
Issued by NWS

Home | Current Version | Previous Version | Text Only | Print | Product List | Glossary On
Versions: 1 2 3 4 5 6 7 8 9 10 11 12 13 14 15 16 17 18
000
FTUS45 KABQ 281700 RRA
TAFROW
TAF
KROW 281746Z 2818/0118 15008KT P6SM OVC010
      TEMPO 2818/2820 OVC005
     FM282300 14007KT P6SM SCT015 OVC035
     FM010800 VRB04KT P6SM VCFG OVC005=

USA.gov is the U.S. government's official web portal to all federal, state and local government web resources and services.